sensor_id;sensor_type;location;lat;lon;timestamp;P1;durP1;ratioP1;P2;durP2;ratioP2
2119;SDS011;1066;52.540;13.420;2024-02-26T00:00:32;12.20;;;10.53;;
2119;SDS011;1066;52.540;13.420;2024-02-26T00:02:59;14.17;;;11.37;;
2119;SDS011;1066;52.540;13.420;2024-02-26T00:05:25;11.70;;;10.50;;
2119;SDS011;1066;52.540;13.420;2024-02-26T00:07:50;10.10;;;9.10;;
2119;SDS011;1066;52.540;13.420;2024-02-26T00:10:16;11.50;;;10.40;;
2119;SDS011;1066;52.540;13.420;2024-02-26T00:12:41;11.43;;;10.33;;
2119;SDS011;1066;52.540;13.420;2024-02-26T00:15:07;13.23;;;11.27;;
2119;SDS011;1066;52.540;13.420;2024-02-26T00:17:33;12.87;;;11.43;;
2119;SDS011;1066;52.540;13.420;2024-02-26T00:19:58;12.40;;;10.33;;
2119;SDS011;1066;52.540;13.420;2024-02-26T00:22:25;11.53;;;10.40;;
2119;SDS011;1066;52.540;13.420;2024-02-26T00:24:51;13.23;;;10.67;;
2119;SDS011;1066;52.540;13.420;2024-02-26T00:27:16;14.70;;;12.10;;
2119;SDS011;1066;52.540;13.420;2024-02-26T00:29:41;13.77;;;11.43;;
2119;SDS011;1066;52.540;13.420;2024-02-26T00:32:07;11.97;;;10.83;;
2119;SDS011;1066;52.540;13.420;2024-02-26T00:34:32;12.67;;;11.10;;
2119;SDS011;1066;52.540;13.420;2024-02-26T00:36:57;11.70;;;10.20;;
2119;SDS011;1066;52.540;13.420;2024-02-26T00:39:23;12.20;;;10.90;;
2119;SDS011;1066;52.540;13.420;2024-02-26T00:41:48;12.20;;;10.80;;
2119;SDS011;1066;52.540;13.420;2024-02-26T00:44:14;13.07;;;10.67;;
2119;SDS011;1066;52.540;13.420;2024-02-26T00:46:39;12.17;;;10.57;;
2119;SDS011;1066;52.540;13.420;2024-02-26T00:49:07;10.77;;;9.47;;
2119;SDS011;1066;52.540;13.420;2024-02-26T00:51:32;13.83;;;9.27;;
2119;SDS011;1066;52.540;13.420;2024-02-26T00:53:58;11.37;;;10.20;;
2119;SDS011;1066;52.540;13.420;2024-02-26T00:56:23;11.10;;;10.00;;
2119;SDS011;1066;52.540;13.420;2024-02-26T00:58:48;12.30;;;10.13;;
2119;SDS011;1066;52.540;13.420;2024-02-26T01:01:14;11.90;;;10.20;;
2119;SDS011;1066;52.540;13.420;2024-02-26T01:03:39;11.07;;;9.97;;
2119;SDS011;1066;52.540;13.420;2024-02-26T01:06:04;10.87;;;9.77;;
2119;SDS011;1066;52.540;13.420;2024-02-26T01:08:30;12.53;;;9.97;;
2119;SDS011;1066;52.540;13.420;2024-02-26T01:10:56;10.93;;;9.83;;
2119;SDS011;1066;52.540;13.420;2024-02-26T01:13:22;9.90;;;8.97;;
2119;SDS011;1066;52.540;13.420;2024-02-26T01:15:47;11.80;;;10.70;;
2119;SDS011;1066;52.540;13.420;2024-02-26T01:18:12;12.17;;;9.57;;
2119;SDS011;1066;52.540;13.420;2024-02-26T01:20:38;11.13;;;9.10;;
2119;SDS011;1066;52.540;13.420;2024-02-26T01:23:03;9.20;;;8.40;;
2119;SDS011;1066;52.540;13.420;2024-02-26T01:25:29;9.70;;;8.90;;
2119;SDS011;1066;52.540;13.420;2024-02-26T01:27:54;8.90;;;8.10;;
2119;SDS011;1066;52.540;13.420;2024-02-26T01:30:19;9.50;;;8.50;;
2119;SDS011;1066;52.540;13.420;2024-02-26T01:32:45;9.30;;;8.50;;
2119;SDS011;1066;52.540;13.420;2024-02-26T01:35:10;9.03;;;8.03;;
2119;SDS011;1066;52.540;13.420;2024-02-26T01:37:37;10.30;;;7.87;;
2119;SDS011;1066;52.540;13.420;2024-02-26T01:40:02;9.47;;;8.47;;
2119;SDS011;1066;52.540;13.420;2024-02-26T01:42:31;8.30;;;7.50;;
2119;SDS011;1066;52.540;13.420;2024-02-26T01:44:57;8.70;;;7.17;;
2119;SDS011;1066;52.540;13.420;2024-02-26T01:47:23;8.93;;;7.27;;
2119;SDS011;1066;52.540;13.420;2024-02-26T01:49:48;8.20;;;7.07;;
2119;SDS011;1066;52.540;13.420;2024-02-26T01:52:14;8.10;;;7.40;;
2119;SDS011;1066;52.540;13.420;2024-02-26T01:54:41;6.87;;;5.83;;
2119;SDS011;1066;52.540;13.420;2024-02-26T01:57:08;8.80;;;6.60;;
2119;SDS011;1066;52.540;13.420;2024-02-26T01:59:35;7.20;;;6.50;;
2119;SDS011;1066;52.540;13.420;2024-02-26T02:02:01;7.77;;;7.00;;
2119;SDS011;1066;52.540;13.420;2024-02-26T02:04:28;6.70;;;6.10;;
2119;SDS011;1066;52.540;13.420;2024-02-26T02:06:54;6.93;;;6.30;;
2119;SDS011;1066;52.540;13.420;2024-02-26T02:09:20;6.60;;;6.00;;
2119;SDS011;1066;52.540;13.420;2024-02-26T02:11:48;7.50;;;6.70;;
2119;SDS011;1066;52.540;13.420;2024-02-26T02:14:13;7.50;;;6.50;;
2119;SDS011;1066;52.540;13.420;2024-02-26T02:16:39;6.60;;;5.97;;
2119;SDS011;1066;52.540;13.420;2024-02-26T02:19:07;7.27;;;6.57;;
2119;SDS011;1066;52.540;13.420;2024-02-26T02:21:32;7.30;;;6.60;;
2119;SDS011;1066;52.540;13.420;2024-02-26T02:23:57;7.77;;;7.07;;
2119;SDS011;1066;52.540;13.420;2024-02-26T02:26:22;8.70;;;6.00;;
2119;SDS011;1066;52.540;13.420;2024-02-26T02:28:48;5.93;;;5.43;;
2119;SDS011;1066;52.540;13.420;2024-02-26T02:31:14;6.73;;;6.03;;
2119;SDS011;1066;52.540;13.420;2024-02-26T02:33:40;5.73;;;5.13;;
2119;SDS011;1066;52.540;13.420;2024-02-26T02:36:05;6.10;;;5.43;;
2119;SDS011;1066;52.540;13.420;2024-02-26T02:38:34;5.60;;;5.03;;
2119;SDS011;1066;52.540;13.420;2024-02-26T02:41:00;5.80;;;5.20;;
2119;SDS011;1066;52.540;13.420;2024-02-26T02:43:28;5.23;;;4.80;;
2119;SDS011;1066;52.540;13.420;2024-02-26T02:45:54;6.27;;;5.50;;
2119;SDS011;1066;52.540;13.420;2024-02-26T02:48:19;4.97;;;4.40;;
2119;SDS011;1066;52.540;13.420;2024-02-26T02:50:45;5.63;;;5.03;;
2119;SDS011;1066;52.540;13.420;2024-02-26T02:53:10;6.10;;;5.20;;
2119;SDS011;1066;52.540;13.420;2024-02-26T02:55:36;6.90;;;6.30;;
2119;SDS011;1066;52.540;13.420;2024-02-26T02:58:01;5.30;;;4.80;;
2119;SDS011;1066;52.540;13.420;2024-02-26T03:00:26;5.90;;;5.30;;
2119;SDS011;1066;52.540;13.420;2024-02-26T03:02:52;5.90;;;5.40;;
2119;SDS011;1066;52.540;13.420;2024-02-26T03:05:17;7.20;;;5.30;;
2119;SDS011;1066;52.540;13.420;2024-02-26T03:07:43;5.17;;;4.67;;
2119;SDS011;1066;52.540;13.420;2024-02-26T03:10:08;6.97;;;4.40;;
2119;SDS011;1066;52.540;13.420;2024-02-26T03:12:34;5.87;;;5.20;;
2119;SDS011;1066;52.540;13.420;2024-02-26T03:14:59;6.00;;;5.40;;
2119;SDS011;1066;52.540;13.420;2024-02-26T03:17:27;5.67;;;5.10;;
2119;SDS011;1066;52.540;13.420;2024-02-26T03:19:53;5.80;;;5.30;;
2119;SDS011;1066;52.540;13.420;2024-02-26T03:22:19;6.77;;;6.17;;
2119;SDS011;1066;52.540;13.420;2024-02-26T03:24:45;6.10;;;5.60;;
2119;SDS011;1066;52.540;13.420;2024-02-26T03:27:10;5.80;;;5.30;;
2119;SDS011;1066;52.540;13.420;2024-02-26T03:29:37;6.07;;;5.57;;
2119;SDS011;1066;52.540;13.420;2024-02-26T03:32:02;6.00;;;5.40;;
2119;SDS011;1066;52.540;13.420;2024-02-26T03:34:28;6.53;;;5.47;;
2119;SDS011;1066;52.540;13.420;2024-02-26T03:36:53;6.10;;;5.40;;
2119;SDS011;1066;52.540;13.420;2024-02-26T03:39:19;5.97;;;5.37;;
2119;SDS011;1066;52.540;13.420;2024-02-26T03:41:44;5.90;;;5.40;;
2119;SDS011;1066;52.540;13.420;2024-02-26T03:44:09;6.00;;;5.43;;
2119;SDS011;1066;52.540;13.420;2024-02-26T03:46:35;5.90;;;5.30;;
2119;SDS011;1066;52.540;13.420;2024-02-26T03:49:00;5.37;;;4.63;;
2119;SDS011;1066;52.540;13.420;2024-02-26T03:51:25;6.17;;;4.93;;
2119;SDS011;1066;52.540;13.420;2024-02-26T03:53:51;5.73;;;5.23;;
2119;SDS011;1066;52.540;13.420;2024-02-26T03:56:17;6.00;;;5.40;;
2119;SDS011;1066;52.540;13.420;2024-02-26T03:58:42;7.00;;;5.63;;
2119;SDS011;1066;52.540;13.420;2024-02-26T04:01:08;7.40;;;5.67;;
2119;SDS011;1066;52.540;13.420;2024-02-26T04:03:33;6.03;;;5.50;;
2119;SDS011;1066;52.540;13.420;2024-02-26T04:05:59;5.87;;;5.27;;
2119;SDS011;1066;52.540;13.420;2024-02-26T04:08:24;6.37;;;5.50;;
2119;SDS011;1066;52.540;13.420;2024-02-26T04:10:50;6.77;;;6.13;;
2119;SDS011;1066;52.540;13.420;2024-02-26T04:13:16;7.73;;;6.57;;
2119;SDS011;1066;52.540;13.420;2024-02-26T04:15:42;7.90;;;6.77;;
2119;SDS011;1066;52.540;13.420;2024-02-26T04:18:08;7.27;;;6.57;;
2119;SDS011;1066;52.540;13.420;2024-02-26T04:20:33;6.63;;;5.97;;
2119;SDS011;1066;52.540;13.420;2024-02-26T04:22:58;6.10;;;5.57;;
2119;SDS011;1066;52.540;13.420;2024-02-26T04:25:24;5.83;;;5.40;;
2119;SDS011;1066;52.540;13.420;2024-02-26T04:27:49;6.90;;;6.20;;
2119;SDS011;1066;52.540;13.420;2024-02-26T04:30:15;6.13;;;5.47;;
2119;SDS011;1066;52.540;13.420;2024-02-26T04:32:40;6.53;;;5.90;;
2119;SDS011;1066;52.540;13.420;2024-02-26T04:35:06;7.20;;;5.47;;
2119;SDS011;1066;52.540;13.420;2024-02-26T04:37:31;8.00;;;6.30;;
2119;SDS011;1066;52.540;13.420;2024-02-26T04:40:00;6.90;;;6.20;;
2119;SDS011;1066;52.540;13.420;2024-02-26T04:42:26;7.20;;;6.27;;
2119;SDS011;1066;52.540;13.420;2024-02-26T04:44:54;7.70;;;6.20;;
2119;SDS011;1066;52.540;13.420;2024-02-26T04:47:20;6.97;;;6.27;;
2119;SDS011;1066;52.540;13.420;2024-02-26T04:49:47;9.10;;;6.70;;
2119;SDS011;1066;52.540;13.420;2024-02-26T04:52:13;11.43;;;6.90;;
2119;SDS011;1066;52.540;13.420;2024-02-26T04:54:39;6.40;;;5.80;;
2119;SDS011;1066;52.540;13.420;2024-02-26T04:57:04;8.80;;;5.67;;
2119;SDS011;1066;52.540;13.420;2024-02-26T04:59:29;6.13;;;5.10;;
2119;SDS011;1066;52.540;13.420;2024-02-26T05:01:55;8.57;;;6.17;;
2119;SDS011;1066;52.540;13.420;2024-02-26T05:04:20;5.67;;;5.13;;
2119;SDS011;1066;52.540;13.420;2024-02-26T05:06:46;6.30;;;5.70;;
2119;SDS011;1066;52.540;13.420;2024-02-26T05:09:11;6.63;;;6.03;;
2119;SDS011;1066;52.540;13.420;2024-02-26T05:11:37;6.70;;;5.83;;
2119;SDS011;1066;52.540;13.420;2024-02-26T05:14:02;8.83;;;6.03;;
2119;SDS011;1066;52.540;13.420;2024-02-26T05:16:28;7.83;;;6.53;;
2119;SDS011;1066;52.540;13.420;2024-02-26T05:18:55;7.20;;;6.47;;
2119;SDS011;1066;52.540;13.420;2024-02-26T05:21:20;8.77;;;6.13;;
2119;SDS011;1066;52.540;13.420;2024-02-26T05:23:45;7.90;;;7.10;;
2119;SDS011;1066;52.540;13.420;2024-02-26T05:26:11;8.67;;;7.13;;
2119;SDS011;1066;52.540;13.420;2024-02-26T05:28:36;8.37;;;7.33;;
2119;SDS011;1066;52.540;13.420;2024-02-26T05:31:04;8.00;;;7.20;;
2119;SDS011;1066;52.540;13.420;2024-02-26T05:33:30;11.00;;;8.37;;
2119;SDS011;1066;52.540;13.420;2024-02-26T05:35:55;9.40;;;7.43;;
2119;SDS011;1066;52.540;13.420;2024-02-26T05:38:20;8.83;;;7.40;;
2119;SDS011;1066;52.540;13.420;2024-02-26T05:40:46;9.43;;;8.10;;
2119;SDS011;1066;52.540;13.420;2024-02-26T05:43:11;9.40;;;8.60;;
2119;SDS011;1066;52.540;13.420;2024-02-26T05:45:36;10.23;;;8.43;;
2119;SDS011;1066;52.540;13.420;2024-02-26T05:48:02;8.80;;;7.20;;
2119;SDS011;1066;52.540;13.420;2024-02-26T05:50:28;8.47;;;7.50;;
2119;SDS011;1066;52.540;13.420;2024-02-26T05:52:53;8.83;;;7.93;;
2119;SDS011;1066;52.540;13.420;2024-02-26T05:55:18;9.50;;;8.40;;
2119;SDS011;1066;52.540;13.420;2024-02-26T05:57:44;9.43;;;8.00;;
2119;SDS011;1066;52.540;13.420;2024-02-26T06:00:09;9.53;;;8.10;;
2119;SDS011;1066;52.540;13.420;2024-02-26T06:02:35;9.37;;;8.37;;
2119;SDS011;1066;52.540;13.420;2024-02-26T06:05:00;9.57;;;7.30;;
2119;SDS011;1066;52.540;13.420;2024-02-26T06:07:26;9.43;;;8.07;;
2119;SDS011;1066;52.540;13.420;2024-02-26T06:09:51;9.83;;;8.93;;
2119;SDS011;1066;52.540;13.420;2024-02-26T06:12:16;9.57;;;8.63;;
2119;SDS011;1066;52.540;13.420;2024-02-26T06:14:42;8.80;;;7.90;;
2119;SDS011;1066;52.540;13.420;2024-02-26T06:17:08;9.57;;;8.67;;
2119;SDS011;1066;52.540;13.420;2024-02-26T06:19:33;9.40;;;8.50;;
2119;SDS011;1066;52.540;13.420;2024-02-26T06:21:58;8.80;;;7.93;;
2119;SDS011;1066;52.540;13.420;2024-02-26T06:24:24;8.83;;;8.03;;
2119;SDS011;1066;52.540;13.420;2024-02-26T06:26:49;10.53;;;9.27;;
2119;SDS011;1066;52.540;13.420;2024-02-26T06:29:14;10.20;;;9.10;;
2119;SDS011;1066;52.540;13.420;2024-02-26T06:31:40;9.37;;;8.47;;
2119;SDS011;1066;52.540;13.420;2024-02-26T06:34:05;11.83;;;9.97;;
2119;SDS011;1066;52.540;13.420;2024-02-26T06:36:31;11.23;;;9.80;;
2119;SDS011;1066;52.540;13.420;2024-02-26T06:38:57;12.23;;;10.93;;
2119;SDS011;1066;52.540;13.420;2024-02-26T06:41:22;11.67;;;10.10;;
2119;SDS011;1066;52.540;13.420;2024-02-26T06:43:52;12.37;;;10.80;;
2119;SDS011;1066;52.540;13.420;2024-02-26T06:46:19;16.87;;;13.00;;
2119;SDS011;1066;52.540;13.420;2024-02-26T06:48:44;14.40;;;12.90;;
2119;SDS011;1066;52.540;13.420;2024-02-26T06:51:10;21.00;;;16.00;;
2119;SDS011;1066;52.540;13.420;2024-02-26T06:53:35;14.10;;;12.63;;
2119;SDS011;1066;52.540;13.420;2024-02-26T06:56:00;16.60;;;12.40;;
2119;SDS011;1066;52.540;13.420;2024-02-26T06:58:26;17.37;;;13.70;;
2119;SDS011;1066;52.540;13.420;2024-02-26T07:00:51;15.87;;;10.40;;
2119;SDS011;1066;52.540;13.420;2024-02-26T07:03:16;16.17;;;12.53;;
2119;SDS011;1066;52.540;13.420;2024-02-26T07:05:42;13.03;;;11.73;;
2119;SDS011;1066;52.540;13.420;2024-02-26T07:08:09;14.30;;;11.80;;
2119;SDS011;1066;52.540;13.420;2024-02-26T07:10:34;15.10;;;10.50;;
2119;SDS011;1066;52.540;13.420;2024-02-26T07:13:00;12.20;;;10.97;;
2119;SDS011;1066;52.540;13.420;2024-02-26T07:15:25;14.67;;;11.57;;
2119;SDS011;1066;52.540;13.420;2024-02-26T07:17:50;12.03;;;10.83;;
2119;SDS011;1066;52.540;13.420;2024-02-26T07:20:16;13.00;;;11.70;;
2119;SDS011;1066;52.540;13.420;2024-02-26T07:22:43;12.23;;;10.90;;
2119;SDS011;1066;52.540;13.420;2024-02-26T07:25:08;13.17;;;11.90;;
2119;SDS011;1066;52.540;13.420;2024-02-26T07:27:41;12.50;;;11.17;;
2119;SDS011;1066;52.540;13.420;2024-02-26T07:30:06;12.90;;;11.60;;
2119;SDS011;1066;52.540;13.420;2024-02-26T07:32:33;13.23;;;11.23;;
2119;SDS011;1066;52.540;13.420;2024-02-26T07:34:58;15.30;;;13.07;;
2119;SDS011;1066;52.540;13.420;2024-02-26T07:37:23;18.50;;;15.07;;
2119;SDS011;1066;52.540;13.420;2024-02-26T07:39:49;16.97;;;13.03;;
2119;SDS011;1066;52.540;13.420;2024-02-26T07:42:14;16.30;;;12.20;;
2119;SDS011;1066;52.540;13.420;2024-02-26T07:44:39;13.23;;;11.83;;
2119;SDS011;1066;52.540;13.420;2024-02-26T07:47:08;14.70;;;10.57;;
2119;SDS011;1066;52.540;13.420;2024-02-26T07:49:34;13.97;;;12.67;;
2119;SDS011;1066;52.540;13.420;2024-02-26T07:51:59;13.53;;;11.40;;
2119;SDS011;1066;52.540;13.420;2024-02-26T07:54:24;15.03;;;11.93;;
2119;SDS011;1066;52.540;13.420;2024-02-26T07:56:50;13.73;;;11.70;;
2119;SDS011;1066;52.540;13.420;2024-02-26T07:59:18;15.37;;;13.77;;
2119;SDS011;1066;52.540;13.420;2024-02-26T08:01:43;14.33;;;12.93;;
2119;SDS011;1066;52.540;13.420;2024-02-26T08:04:08;14.13;;;11.43;;
2119;SDS011;1066;52.540;13.420;2024-02-26T08:06:34;14.77;;;13.37;;
2119;SDS011;1066;52.540;13.420;2024-02-26T08:08:59;13.97;;;12.43;;
2119;SDS011;1066;52.540;13.420;2024-02-26T08:11:29;14.87;;;13.40;;
2119;SDS011;1066;52.540;13.420;2024-02-26T08:13:54;17.60;;;14.10;;
2119;SDS011;1066;52.540;13.420;2024-02-26T08:16:20;15.57;;;12.37;;
2119;SDS011;1066;52.540;13.420;2024-02-26T08:18:45;14.00;;;12.37;;
2119;SDS011;1066;52.540;13.420;2024-02-26T08:21:13;13.20;;;11.83;;
2119;SDS011;1066;52.540;13.420;2024-02-26T08:23:38;12.90;;;11.67;;
2119;SDS011;1066;52.540;13.420;2024-02-26T08:26:03;15.90;;;13.67;;
2119;SDS011;1066;52.540;13.420;2024-02-26T08:28:32;14.23;;;12.83;;
2119;SDS011;1066;52.540;13.420;2024-02-26T08:31:00;14.23;;;12.77;;
2119;SDS011;1066;52.540;13.420;2024-02-26T08:33:28;14.53;;;13.03;;
2119;SDS011;1066;52.540;13.420;2024-02-26T08:35:53;13.83;;;11.93;;
2119;SDS011;1066;52.540;13.420;2024-02-26T08:38:22;13.63;;;12.33;;
2119;SDS011;1066;52.540;13.420;2024-02-26T08:40:48;15.67;;;13.17;;
2119;SDS011;1066;52.540;13.420;2024-02-26T08:43:13;13.73;;;12.20;;
2119;SDS011;1066;52.540;13.420;2024-02-26T08:45:39;13.53;;;12.13;;
2119;SDS011;1066;52.540;13.420;2024-02-26T08:48:04;13.87;;;12.60;;
2119;SDS011;1066;52.540;13.420;2024-02-26T08:50:30;14.47;;;13.20;;
2119;SDS011;1066;52.540;13.420;2024-02-26T08:52:55;14.00;;;12.60;;
2119;SDS011;1066;52.540;13.420;2024-02-26T08:55:21;15.40;;;13.80;;
2119;SDS011;1066;52.540;13.420;2024-02-26T08:57:46;15.53;;;13.50;;
2119;SDS011;1066;52.540;13.420;2024-02-26T09:00:12;15.50;;;13.90;;
2119;SDS011;1066;52.540;13.420;2024-02-26T09:02:39;14.20;;;12.80;;
2119;SDS011;1066;52.540;13.420;2024-02-26T09:05:05;14.20;;;12.80;;
2119;SDS011;1066;52.540;13.420;2024-02-26T09:07:31;14.60;;;13.13;;
2119;SDS011;1066;52.540;13.420;2024-02-26T09:09:56;14.80;;;13.40;;
2119;SDS011;1066;52.540;13.420;2024-02-26T09:12:22;15.53;;;14.13;;
2119;SDS011;1066;52.540;13.420;2024-02-26T09:14:47;15.10;;;13.57;;
2119;SDS011;1066;52.540;13.420;2024-02-26T09:17:12;14.17;;;12.97;;
2119;SDS011;1066;52.540;13.420;2024-02-26T09:19:38;15.07;;;13.00;;
2119;SDS011;1066;52.540;13.420;2024-02-26T09:22:03;14.23;;;12.83;;
2119;SDS011;1066;52.540;13.420;2024-02-26T09:24:29;13.87;;;12.40;;
2119;SDS011;1066;52.540;13.420;2024-02-26T09:26:54;15.10;;;13.50;;
2119;SDS011;1066;52.540;13.420;2024-02-26T09:29:20;16.00;;;13.37;;
2119;SDS011;1066;52.540;13.420;2024-02-26T09:31:48;13.40;;;12.00;;
2119;SDS011;1066;52.540;13.420;2024-02-26T09:34:13;15.30;;;13.70;;
2119;SDS011;1066;52.540;13.420;2024-02-26T09:36:40;14.33;;;12.83;;
2119;SDS011;1066;52.540;13.420;2024-02-26T09:39:05;14.83;;;13.23;;
2119;SDS011;1066;52.540;13.420;2024-02-26T09:41:36;15.23;;;13.70;;
2119;SDS011;1066;52.540;13.420;2024-02-26T09:44:01;14.63;;;12.67;;
2119;SDS011;1066;52.540;13.420;2024-02-26T09:46:27;14.93;;;12.83;;
2119;SDS011;1066;52.540;13.420;2024-02-26T09:48:53;14.07;;;12.70;;
2119;SDS011;1066;52.540;13.420;2024-02-26T09:51:18;18.63;;;13.23;;
2119;SDS011;1066;52.540;13.420;2024-02-26T09:53:44;15.63;;;14.03;;
2119;SDS011;1066;52.540;13.420;2024-02-26T09:56:11;14.80;;;12.60;;
2119;SDS011;1066;52.540;13.420;2024-02-26T09:58:37;14.30;;;12.83;;
2119;SDS011;1066;52.540;13.420;2024-02-26T10:01:04;16.77;;;15.00;;
2119;SDS011;1066;52.540;13.420;2024-02-26T10:03:38;13.60;;;12.23;;
2119;SDS011;1066;52.540;13.420;2024-02-26T10:06:05;14.10;;;11.97;;
2119;SDS011;1066;52.540;13.420;2024-02-26T10:08:32;15.33;;;12.10;;
2119;SDS011;1066;52.540;13.420;2024-02-26T10:10:57;15.63;;;12.27;;
2119;SDS011;1066;52.540;13.420;2024-02-26T10:13:23;15.47;;;13.47;;
2119;SDS011;1066;52.540;13.420;2024-02-26T10:15:48;12.80;;;11.57;;
2119;SDS011;1066;52.540;13.420;2024-02-26T10:18:14;14.17;;;12.70;;
2119;SDS011;1066;52.540;13.420;2024-02-26T10:20:40;14.17;;;12.60;;
2119;SDS011;1066;52.540;13.420;2024-02-26T10:23:05;13.90;;;12.43;;
2119;SDS011;1066;52.540;13.420;2024-02-26T10:25:31;12.43;;;11.33;;
2119;SDS011;1066;52.540;13.420;2024-02-26T10:28:00;12.83;;;11.53;;
2119;SDS011;1066;52.540;13.420;2024-02-26T10:30:29;11.90;;;10.80;;
2119;SDS011;1066;52.540;13.420;2024-02-26T10:32:55;16.50;;;12.57;;
2119;SDS011;1066;52.540;13.420;2024-02-26T10:35:21;12.23;;;11.20;;
2119;SDS011;1066;52.540;13.420;2024-02-26T10:37:46;11.17;;;10.13;;
2119;SDS011;1066;52.540;13.420;2024-02-26T10:40:13;13.30;;;11.80;;
2119;SDS011;1066;52.540;13.420;2024-02-26T10:42:40;12.37;;;11.13;;
2119;SDS011;1066;52.540;13.420;2024-02-26T10:45:06;11.83;;;10.67;;
2119;SDS011;1066;52.540;13.420;2024-02-26T10:47:33;11.33;;;10.10;;
2119;SDS011;1066;52.540;13.420;2024-02-26T10:50:02;11.17;;;9.40;;
2119;SDS011;1066;52.540;13.420;2024-02-26T10:52:31;11.50;;;10.37;;
2119;SDS011;1066;52.540;13.420;2024-02-26T10:55:01;11.43;;;10.30;;
2119;SDS011;1066;52.540;13.420;2024-02-26T10:57:28;11.07;;;9.93;;
2119;SDS011;1066;52.540;13.420;2024-02-26T10:59:57;10.50;;;9.53;;
2119;SDS011;1066;52.540;13.420;2024-02-26T11:02:23;12.13;;;10.57;;
2119;SDS011;1066;52.540;13.420;2024-02-26T11:04:48;11.73;;;10.10;;
2119;SDS011;1066;52.540;13.420;2024-02-26T11:07:15;11.67;;;10.47;;
2119;SDS011;1066;52.540;13.420;2024-02-26T11:09:40;12.47;;;11.27;;
2119;SDS011;1066;52.540;13.420;2024-02-26T11:12:10;11.70;;;10.23;;
2119;SDS011;1066;52.540;13.420;2024-02-26T11:14:41;16.70;;;12.10;;
2119;SDS011;1066;52.540;13.420;2024-02-26T11:17:10;10.27;;;9.27;;
2119;SDS011;1066;52.540;13.420;2024-02-26T11:19:36;11.33;;;10.17;;
2119;SDS011;1066;52.540;13.420;2024-02-26T11:22:05;12.20;;;10.97;;
2119;SDS011;1066;52.540;13.420;2024-02-26T11:24:30;10.67;;;9.57;;
2119;SDS011;1066;52.540;13.420;2024-02-26T11:26:58;12.10;;;10.90;;
2119;SDS011;1066;52.540;13.420;2024-02-26T11:29:29;11.83;;;10.67;;
2119;SDS011;1066;52.540;13.420;2024-02-26T11:31:59;11.77;;;10.53;;
2119;SDS011;1066;52.540;13.420;2024-02-26T11:34:25;11.83;;;10.63;;
2119;SDS011;1066;52.540;13.420;2024-02-26T11:36:51;13.73;;;12.27;;
2119;SDS011;1066;52.540;13.420;2024-02-26T11:39:16;10.93;;;9.87;;
2119;SDS011;1066;52.540;13.420;2024-02-26T11:41:42;12.50;;;11.40;;
2119;SDS011;1066;52.540;13.420;2024-02-26T11:44:08;12.20;;;11.10;;
2119;SDS011;1066;52.540;13.420;2024-02-26T11:46:38;12.07;;;10.87;;
2119;SDS011;1066;52.540;13.420;2024-02-26T11:51:52;12.50;;;11.30;;
2119;SDS011;1066;52.540;13.420;2024-02-26T11:57:03;12.70;;;11.40;;
2119;SDS011;1066;52.540;13.420;2024-02-26T11:59:38;11.53;;;10.33;;
2119;SDS011;1066;52.540;13.420;2024-02-26T12:02:03;13.13;;;11.73;;
2119;SDS011;1066;52.540;13.420;2024-02-26T12:04:31;12.67;;;11.47;;
2119;SDS011;1066;52.540;13.420;2024-02-26T12:06:57;13.70;;;11.83;;
2119;SDS011;1066;52.540;13.420;2024-02-26T12:09:32;13.53;;;12.23;;
2119;SDS011;1066;52.540;13.420;2024-02-26T12:11:59;13.63;;;12.00;;
2119;SDS011;1066;52.540;13.420;2024-02-26T12:14:26;14.10;;;12.70;;
2119;SDS011;1066;52.540;13.420;2024-02-26T12:16:52;14.00;;;12.47;;
2119;SDS011;1066;52.540;13.420;2024-02-26T12:19:17;12.50;;;11.20;;
2119;SDS011;1066;52.540;13.420;2024-02-26T12:21:45;12.50;;;11.37;;
2119;SDS011;1066;52.540;13.420;2024-02-26T12:24:16;14.10;;;12.90;;
2119;SDS011;1066;52.540;13.420;2024-02-26T12:26:43;15.37;;;13.87;;
2119;SDS011;1066;52.540;13.420;2024-02-26T12:29:08;13.43;;;12.10;;
2119;SDS011;1066;52.540;13.420;2024-02-26T12:31:35;12.77;;;11.60;;
2119;SDS011;1066;52.540;13.420;2024-02-26T12:34:04;14.93;;;12.10;;
2119;SDS011;1066;52.540;13.420;2024-02-26T12:36:29;13.00;;;11.80;;
2119;SDS011;1066;52.540;13.420;2024-02-26T12:38:55;11.57;;;10.47;;
2119;SDS011;1066;52.540;13.420;2024-02-26T12:41:22;10.97;;;9.97;;
2119;SDS011;1066;52.540;13.420;2024-02-26T12:43:50;10.73;;;9.73;;
2119;SDS011;1066;52.540;13.420;2024-02-26T12:46:16;11.87;;;10.70;;
2119;SDS011;1066;52.540;13.420;2024-02-26T12:48:44;11.00;;;9.90;;
2119;SDS011;1066;52.540;13.420;2024-02-26T12:51:11;10.60;;;9.57;;
2119;SDS011;1066;52.540;13.420;2024-02-26T12:53:37;10.03;;;9.13;;
2119;SDS011;1066;52.540;13.420;2024-02-26T12:56:03;13.47;;;9.80;;
2119;SDS011;1066;52.540;13.420;2024-02-26T12:58:29;9.20;;;7.77;;
2119;SDS011;1066;52.540;13.420;2024-02-26T13:00:58;10.10;;;7.97;;
2119;SDS011;1066;52.540;13.420;2024-02-26T13:03:26;7.37;;;6.67;;
2119;SDS011;1066;52.540;13.420;2024-02-26T13:05:53;11.00;;;8.57;;
2119;SDS011;1066;52.540;13.420;2024-02-26T13:08:19;9.60;;;7.90;;
2119;SDS011;1066;52.540;13.420;2024-02-26T13:10:45;7.47;;;6.80;;
2119;SDS011;1066;52.540;13.420;2024-02-26T13:13:14;10.37;;;7.80;;
2119;SDS011;1066;52.540;13.420;2024-02-26T13:15:40;7.27;;;6.57;;
2119;SDS011;1066;52.540;13.420;2024-02-26T13:18:11;7.37;;;6.43;;
2119;SDS011;1066;52.540;13.420;2024-02-26T13:20:38;10.37;;;7.60;;
2119;SDS011;1066;52.540;13.420;2024-02-26T13:23:10;7.00;;;6.40;;
2119;SDS011;1066;52.540;13.420;2024-02-26T13:25:36;8.00;;;7.27;;
2119;SDS011;1066;52.540;13.420;2024-02-26T13:28:05;6.53;;;5.93;;
2119;SDS011;1066;52.540;13.420;2024-02-26T13:30:31;6.27;;;5.67;;
2119;SDS011;1066;52.540;13.420;2024-02-26T13:32:56;5.53;;;4.93;;
2119;SDS011;1066;52.540;13.420;2024-02-26T13:35:32;5.90;;;5.33;;
2119;SDS011;1066;52.540;13.420;2024-02-26T13:37:59;5.67;;;5.13;;
2119;SDS011;1066;52.540;13.420;2024-02-26T13:40:28;6.10;;;5.43;;
2119;SDS011;1066;52.540;13.420;2024-02-26T13:42:54;6.37;;;4.87;;
2119;SDS011;1066;52.540;13.420;2024-02-26T13:45:19;5.63;;;5.13;;
2119;SDS011;1066;52.540;13.420;2024-02-26T13:47:44;5.57;;;4.10;;
2119;SDS011;1066;52.540;13.420;2024-02-26T13:50:10;6.50;;;4.83;;
2119;SDS011;1066;52.540;13.420;2024-02-26T13:52:36;4.40;;;4.00;;
2119;SDS011;1066;52.540;13.420;2024-02-26T13:55:03;4.70;;;4.30;;
2119;SDS011;1066;52.540;13.420;2024-02-26T13:57:29;6.17;;;4.80;;
2119;SDS011;1066;52.540;13.420;2024-02-26T13:59:54;4.70;;;4.30;;
2119;SDS011;1066;52.540;13.420;2024-02-26T14:02:20;5.50;;;4.67;;
2119;SDS011;1066;52.540;13.420;2024-02-26T14:04:46;6.20;;;4.80;;
2119;SDS011;1066;52.540;13.420;2024-02-26T14:07:11;6.23;;;4.83;;
2119;SDS011;1066;52.540;13.420;2024-02-26T14:09:37;5.93;;;5.40;;
2119;SDS011;1066;52.540;13.420;2024-02-26T14:12:02;6.13;;;5.13;;
2119;SDS011;1066;52.540;13.420;2024-02-26T14:14:28;5.17;;;4.67;;
2119;SDS011;1066;52.540;13.420;2024-02-26T14:16:53;5.87;;;5.23;;
2119;SDS011;1066;52.540;13.420;2024-02-26T14:19:20;5.67;;;5.10;;
2119;SDS011;1066;52.540;13.420;2024-02-26T14:21:46;5.90;;;4.57;;
2119;SDS011;1066;52.540;13.420;2024-02-26T14:24:11;6.03;;;4.77;;
2119;SDS011;1066;52.540;13.420;2024-02-26T14:26:39;6.20;;;5.60;;
2119;SDS011;1066;52.540;13.420;2024-02-26T14:29:05;6.10;;;5.50;;
2119;SDS011;1066;52.540;13.420;2024-02-26T14:31:31;6.30;;;5.57;;
2119;SDS011;1066;52.540;13.420;2024-02-26T14:33:57;7.73;;;7.03;;
2119;SDS011;1066;52.540;13.420;2024-02-26T14:36:22;7.60;;;6.80;;
2119;SDS011;1066;52.540;13.420;2024-02-26T14:38:48;6.87;;;6.27;;
2119;SDS011;1066;52.540;13.420;2024-02-26T14:41:13;7.90;;;7.20;;
2119;SDS011;1066;52.540;13.420;2024-02-26T14:43:39;6.60;;;6.00;;
2119;SDS011;1066;52.540;13.420;2024-02-26T14:46:07;7.73;;;6.93;;